createdAt,value
2018-03-28T00:00:48.974Z,2.70
2018-03-28T00:03:18.844Z,2.70
2018-03-28T00:05:48.709Z,2.70
2018-03-28T00:08:18.245Z,2.70
2018-03-28T00:10:48.117Z,2.70
2018-03-28T00:13:17.942Z,2.70
2018-03-28T00:15:47.798Z,2.70
2018-03-28T00:18:17.620Z,2.70
2018-03-28T00:20:47.905Z,2.70
2018-03-28T00:23:17.753Z,2.70
2018-03-28T00:25:48.386Z,2.70
2018-03-28T00:28:18.972Z,2.70
2018-03-28T00:30:48.829Z,2.70
2018-03-28T00:33:19.424Z,2.60
2018-03-28T00:35:49.407Z,2.60
2018-03-28T00:38:19.249Z,2.60
2018-03-28T00:40:49.077Z,2.60
2018-03-28T00:43:18.956Z,2.50
2018-03-28T00:45:48.797Z,2.50
2018-03-28T00:48:18.651Z,2.50
2018-03-28T00:50:48.477Z,2.50
2018-03-28T00:53:19.086Z,2.50
2018-03-28T00:55:48.652Z,2.50
2018-03-28T00:58:18.498Z,2.50
2018-03-28T01:00:48.367Z,2.50
2018-03-28T01:03:18.184Z,2.50
2018-03-28T01:05:48.069Z,2.50
2018-03-28T01:08:18.682Z,2.50
2018-03-28T01:10:49.338Z,2.50
2018-03-28T01:13:19.173Z,2.50
2018-03-28T01:15:49.036Z,2.50
2018-03-28T01:18:18.903Z,2.50
2018-03-28T01:20:48.734Z,2.50
2018-03-28T01:23:18.417Z,2.50
2018-03-28T01:25:48.333Z,2.50
2018-03-28T01:28:18.223Z,2.40
2018-03-28T01:30:48.815Z,2.50
2018-03-28T01:33:18.693Z,2.50
2018-03-28T01:35:48.558Z,2.50
2018-03-28T01:38:18.624Z,2.40
2018-03-28T01:40:48.508Z,2.50
2018-03-28T01:43:18.558Z,2.40
2018-03-28T01:45:48.475Z,2.50
2018-03-28T01:48:18.059Z,2.50
2018-03-28T01:50:48.683Z,2.50
2018-03-28T01:53:19.280Z,2.40
2018-03-28T01:55:49.153Z,2.40
2018-03-28T01:58:20.396Z,2.50
2018-03-28T02:00:50.586Z,2.50
2018-03-28T02:03:20.446Z,2.60
2018-03-28T02:05:50.277Z,2.50
2018-03-28T02:08:20.133Z,2.60
2018-03-28T02:10:49.971Z,2.60
2018-03-28T02:13:19.822Z,2.60
2018-03-28T02:15:49.698Z,2.50
2018-03-28T02:18:19.521Z,2.50
2018-03-28T02:20:49.181Z,2.50
2018-03-28T02:23:19.066Z,2.60
2018-03-28T02:25:48.958Z,2.50
2018-03-28T02:28:18.829Z,2.50
2018-03-28T02:30:48.698Z,2.50
2018-03-28T02:33:25.169Z,2.50
2018-03-28T02:35:54.818Z,2.50
2018-03-28T02:38:24.721Z,2.40
2018-03-28T02:40:54.593Z,2.40
2018-03-28T02:43:24.412Z,2.40
2018-03-28T02:45:54.310Z,2.40
2018-03-28T02:48:24.199Z,2.40
2018-03-28T02:50:54.059Z,2.40
2018-03-28T02:53:23.886Z,2.40
2018-03-28T02:55:53.750Z,2.40
2018-03-28T02:58:24.370Z,2.40
2018-03-28T03:00:54.234Z,2.40
2018-03-28T03:03:24.052Z,2.40
2018-03-28T03:05:53.922Z,2.40
2018-03-28T03:08:24.541Z,2.40
2018-03-28T03:10:54.381Z,2.40
2018-03-28T03:13:24.212Z,2.40
2018-03-28T03:15:54.081Z,2.50
2018-03-28T03:18:23.960Z,2.60
2018-03-28T03:20:53.584Z,2.60
2018-03-28T03:23:23.461Z,2.70
2018-03-28T03:25:53.341Z,2.70
2018-03-28T03:28:23.828Z,2.70
2018-03-28T03:30:55.159Z,2.60
2018-03-28T03:36:19.779Z,2.60
2018-03-28T03:38:49.600Z,2.60
2018-03-28T03:41:19.526Z,2.60
2018-03-28T03:43:49.360Z,2.60
2018-03-28T03:46:19.998Z,2.50
2018-03-28T03:48:50.633Z,2.40
2018-03-28T03:51:21.225Z,2.40
2018-03-28T03:53:51.096Z,2.40
2018-03-28T03:56:20.933Z,2.50
2018-03-28T03:58:50.852Z,2.40
2018-03-28T04:01:20.849Z,2.40
2018-03-28T04:03:50.710Z,2.40
2018-03-28T04:06:20.590Z,2.50
2018-03-28T04:08:50.414Z,2.50
2018-03-28T04:11:20.482Z,2.50
2018-03-28T04:13:51.077Z,2.60
2018-03-28T04:16:20.939Z,2.60
2018-03-28T04:18:51.570Z,2.60
2018-03-28T04:21:22.207Z,2.50
2018-03-28T04:23:52.042Z,2.50
2018-03-28T04:26:21.909Z,2.50
2018-03-28T04:28:51.730Z,2.60
2018-03-28T04:31:22.392Z,2.50
2018-03-28T04:33:52.221Z,2.50
2018-03-28T04:36:21.739Z,2.50
2018-03-28T04:38:51.665Z,2.50
2018-03-28T04:41:21.701Z,2.50
2018-03-28T04:43:51.568Z,2.40
2018-03-28T04:46:21.389Z,2.50
2018-03-28T04:48:51.274Z,2.50
2018-03-28T04:51:21.957Z,2.40
2018-03-28T04:53:51.823Z,2.40
2018-03-28T04:56:22.453Z,2.50
2018-03-28T04:58:53.054Z,2.40
2018-03-28T05:01:23.768Z,2.40
2018-03-28T05:03:53.606Z,2.40
2018-03-28T05:06:23.850Z,2.40
2018-03-28T05:08:54.438Z,2.50
2018-03-28T05:11:24.297Z,2.50
2018-03-28T05:13:54.899Z,2.50
2018-03-28T05:16:24.773Z,2.50
2018-03-28T05:18:54.593Z,2.50
2018-03-28T05:21:24.450Z,2.40
2018-03-28T05:23:55.425Z,2.50
2018-03-28T05:26:27.595Z,2.50
2018-03-28T05:28:58.185Z,2.50
2018-03-28T05:31:28.018Z,2.40
2018-03-28T05:33:58.421Z,2.40
2018-03-28T05:36:28.293Z,2.40
2018-03-28T05:38:58.161Z,2.40
2018-03-28T05:41:28.798Z,2.30
2018-03-28T05:43:59.432Z,2.40
2018-03-28T05:46:30.034Z,2.30
2018-03-28T05:48:59.900Z,2.30
2018-03-28T05:51:29.715Z,2.30
2018-03-28T05:53:59.813Z,2.40
2018-03-28T05:56:30.447Z,2.40
2018-03-28T05:59:01.049Z,2.40
2018-03-28T06:01:30.893Z,2.40
2018-03-28T06:04:01.487Z,2.20
2018-03-28T06:06:31.337Z,2.20
2018-03-28T06:09:01.942Z,2.20
2018-03-28T06:11:32.286Z,2.20
2018-03-28T06:14:02.153Z,2.20
2018-03-28T06:16:31.976Z,2.10
2018-03-28T06:19:01.980Z,2.10
2018-03-28T06:21:31.849Z,2.00
2018-03-28T06:24:02.480Z,2.00
2018-03-28T06:26:33.070Z,2.10
2018-03-28T06:29:03.053Z,2.00
2018-03-28T06:31:32.919Z,2.00
2018-03-28T06:34:02.793Z,2.10
2018-03-28T06:36:32.634Z,2.10
2018-03-28T06:39:02.473Z,2.10
2018-03-28T06:41:32.091Z,2.10
2018-03-28T06:44:02.929Z,2.10
2018-03-28T06:46:33.698Z,2.00
2018-03-28T06:49:03.646Z,2.00
2018-03-28T06:51:33.530Z,2.00
2018-03-28T06:54:03.398Z,2.00
2018-03-28T06:56:33.366Z,1.90
2018-03-28T06:59:03.224Z,1.90
2018-03-28T07:01:33.042Z,1.90
2018-03-28T07:04:02.927Z,1.90
2018-03-28T07:06:32.802Z,1.90
2018-03-28T07:09:02.613Z,1.90
2018-03-28T07:11:33.082Z,1.90
2018-03-28T07:14:02.693Z,1.90
2018-03-28T07:16:32.629Z,1.90
2018-03-28T07:19:02.451Z,1.90
2018-03-28T07:21:32.297Z,1.90
2018-03-28T07:24:02.158Z,1.90
2018-03-28T07:26:31.977Z,1.90
2018-03-28T07:29:01.825Z,1.90
2018-03-28T07:31:32.420Z,2.00
2018-03-28T07:34:02.298Z,1.90
2018-03-28T07:36:32.188Z,1.80
2018-03-28T07:39:02.993Z,1.90
2018-03-28T07:41:33.740Z,1.90
2018-03-28T07:44:03.419Z,1.90
2018-03-28T07:46:33.271Z,2.00
2018-03-28T07:49:03.146Z,2.00
2018-03-28T07:51:32.980Z,1.90
2018-03-28T07:54:03.234Z,1.90
2018-03-28T07:56:34.029Z,2.00
2018-03-28T07:59:03.911Z,2.00
2018-03-28T08:01:33.786Z,2.00
2018-03-28T08:04:03.662Z,2.00
2018-03-28T08:06:33.517Z,2.00
2018-03-28T08:09:03.141Z,2.10
2018-03-28T08:11:33.738Z,2.10
2018-03-28T08:14:03.600Z,2.10
2018-03-28T08:16:34.192Z,2.20
2018-03-28T08:19:03.709Z,2.20
2018-03-28T08:21:33.518Z,2.20
2018-03-28T08:24:03.388Z,2.20
2018-03-28T08:26:33.230Z,2.10
2018-03-28T08:29:03.104Z,2.20
2018-03-28T08:31:32.962Z,2.30
2018-03-28T08:34:02.829Z,2.30
2018-03-28T08:36:32.700Z,2.30
2018-03-28T08:39:02.558Z,2.30
2018-03-28T08:41:32.160Z,2.30
2018-03-28T08:44:02.823Z,2.30
2018-03-28T08:46:32.689Z,2.30
2018-03-28T08:49:02.546Z,2.30
2018-03-28T08:51:32.380Z,2.30
2018-03-28T08:54:02.258Z,2.30
2018-03-28T08:56:32.125Z,2.20
2018-03-28T08:59:01.944Z,2.20
2018-03-28T09:01:33.327Z,2.20
2018-03-28T09:04:03.986Z,2.30
2018-03-28T09:06:33.830Z,2.20
2018-03-28T09:09:03.126Z,2.30
2018-03-28T09:11:33.048Z,2.40
2018-03-28T09:14:03.095Z,2.30
2018-03-28T09:16:32.954Z,2.30
2018-03-28T09:19:02.813Z,2.40
2018-03-28T09:21:32.647Z,2.40
2018-03-28T09:24:03.276Z,2.40
2018-03-28T09:26:33.905Z,2.40
2018-03-28T09:29:03.724Z,2.40
2018-03-28T09:31:34.337Z,2.50
2018-03-28T09:34:04.173Z,2.50
2018-03-28T09:36:34.797Z,2.30
2018-03-28T09:39:04.725Z,2.30
2018-03-28T09:41:35.373Z,2.40
2018-03-28T09:44:05.259Z,2.40
2018-03-28T09:46:35.316Z,2.40
2018-03-28T09:49:05.385Z,2.50
2018-03-28T09:51:35.276Z,2.50
2018-03-28T09:54:04.819Z,2.40
2018-03-28T09:56:34.690Z,2.40
2018-03-28T09:59:04.571Z,2.40
2018-03-28T10:01:34.189Z,2.50
2018-03-28T10:04:09.596Z,2.50
2018-03-28T10:06:39.225Z,2.50
2018-03-28T10:09:09.149Z,2.50
2018-03-28T10:11:39.002Z,2.40
2018-03-28T10:14:08.932Z,2.40
2018-03-28T10:16:38.996Z,2.40
2018-03-28T10:19:09.598Z,2.40
2018-03-28T10:21:40.247Z,2.40
2018-03-28T10:24:10.842Z,2.40
2018-03-28T10:26:40.705Z,2.40
2018-03-28T10:29:10.860Z,2.50
2018-03-28T10:31:40.728Z,2.40
2018-03-28T10:34:10.557Z,2.40
2018-03-28T10:36:40.449Z,2.40
2018-03-28T10:39:10.733Z,2.40
2018-03-28T10:41:40.613Z,2.40
2018-03-28T10:44:10.472Z,2.40
2018-03-28T10:46:40.357Z,2.40
2018-03-28T10:49:10.226Z,2.40
2018-03-28T10:51:40.827Z,2.40
2018-03-28T10:54:10.685Z,2.40
2018-03-28T10:56:40.627Z,2.20
2018-03-28T10:59:10.493Z,2.30
2018-03-28T11:01:40.341Z,2.30
2018-03-28T11:04:10.216Z,2.30
2018-03-28T11:06:40.057Z,2.30
2018-03-28T11:09:09.924Z,2.30
2018-03-28T11:11:39.798Z,2.20
2018-03-28T11:14:09.704Z,2.30
2018-03-28T11:16:39.539Z,2.30
2018-03-28T11:19:09.429Z,2.20
2018-03-28T11:21:39.338Z,2.20
2018-03-28T11:24:09.940Z,2.20
2018-03-28T11:26:39.551Z,2.20
2018-03-28T11:29:09.460Z,2.20
2018-03-28T11:31:39.455Z,2.20
2018-03-28T11:34:09.359Z,2.20
2018-03-28T11:36:39.206Z,2.20
2018-03-28T11:39:09.070Z,2.20
2018-03-28T11:41:39.768Z,2.20
2018-03-28T11:44:10.415Z,2.20
2018-03-28T11:46:41.025Z,2.20
2018-03-28T11:49:10.889Z,2.20
2018-03-28T11:51:40.798Z,2.30
2018-03-28T11:54:10.640Z,2.30
2018-03-28T11:56:41.297Z,2.30
2018-03-28T11:59:11.119Z,2.30
2018-03-28T12:01:40.713Z,2.30
2018-03-28T12:04:10.566Z,2.40
2018-03-28T12:06:40.430Z,2.30
2018-03-28T12:09:10.286Z,2.40
2018-03-28T12:11:40.154Z,2.40
2018-03-28T12:14:10.009Z,2.40
2018-03-28T12:16:40.681Z,2.40
2018-03-28T12:19:10.565Z,2.30
2018-03-28T12:21:41.153Z,2.30
2018-03-28T12:24:11.001Z,2.30
2018-03-28T12:26:40.648Z,2.30
2018-03-28T12:29:10.521Z,2.30
2018-03-28T12:31:40.373Z,2.30
2018-03-28T12:34:10.240Z,2.40
2018-03-28T12:36:40.099Z,2.40
2018-03-28T12:39:09.979Z,2.30
2018-03-28T12:41:40.574Z,2.30
2018-03-28T12:44:10.404Z,2.30
2018-03-28T12:46:40.993Z,2.30
2018-03-28T12:49:10.876Z,2.30
2018-03-28T12:51:41.473Z,2.30
2018-03-28T12:54:11.473Z,2.30
2018-03-28T12:56:41.393Z,2.30
2018-03-28T12:59:11.273Z,2.30
2018-03-28T13:01:41.129Z,2.40
2018-03-28T13:04:10.986Z,2.40
2018-03-28T13:06:41.634Z,2.20
2018-03-28T13:09:11.527Z,2.20
2018-03-28T13:11:42.150Z,2.20
2018-03-28T13:14:11.957Z,2.20
2018-03-28T13:16:41.808Z,2.20
2018-03-28T13:19:11.705Z,2.20
2018-03-28T13:21:42.369Z,2.30
2018-03-28T13:24:12.217Z,2.30
2018-03-28T13:26:41.854Z,2.30
2018-03-28T13:29:12.445Z,2.40
2018-03-28T13:31:42.297Z,2.40
2018-03-28T13:34:12.913Z,2.30
2018-03-28T13:36:42.726Z,2.30
2018-03-28T13:39:12.578Z,2.40
2018-03-28T13:41:42.397Z,2.40
2018-03-28T13:44:12.271Z,2.50
2018-03-28T13:46:42.230Z,2.70
2018-03-28T13:49:12.113Z,2.70
2018-03-28T13:51:42.729Z,2.50
2018-03-28T13:54:13.618Z,2.50
2018-03-28T13:56:43.473Z,2.50
2018-03-28T13:59:13.298Z,2.50
2018-03-28T14:01:43.254Z,2.50
2018-03-28T14:04:13.080Z,2.60
2018-03-28T14:06:42.920Z,2.60
2018-03-28T14:09:12.796Z,2.60
2018-03-28T14:11:42.619Z,2.60
2018-03-28T14:14:12.453Z,2.50
2018-03-28T14:16:42.289Z,2.50
2018-03-28T14:19:12.156Z,2.50
2018-03-28T14:21:42.012Z,2.40
2018-03-28T14:24:11.748Z,2.40
2018-03-28T14:26:42.337Z,2.40
2018-03-28T14:29:12.177Z,2.40
2018-03-28T14:31:41.994Z,2.40
2018-03-28T14:34:11.949Z,2.40
2018-03-28T14:36:41.787Z,2.50
2018-03-28T14:39:11.797Z,2.50
2018-03-28T14:41:42.868Z,2.40
2018-03-28T14:44:12.351Z,2.40
2018-03-28T14:46:42.245Z,2.50
2018-03-28T14:49:12.062Z,2.50
2018-03-28T14:51:41.897Z,2.30
2018-03-28T14:54:11.725Z,2.20
2018-03-28T14:56:41.569Z,2.30
2018-03-28T14:59:12.173Z,2.30
2018-03-28T15:01:41.712Z,2.30
2018-03-28T15:04:12.302Z,2.40
2018-03-28T15:06:42.155Z,2.40
2018-03-28T15:09:13.860Z,2.40
2018-03-28T15:11:43.728Z,2.40
2018-03-28T15:14:14.300Z,2.40
2018-03-28T15:16:44.230Z,2.40
2018-03-28T15:19:14.054Z,2.50
2018-03-28T15:21:45.178Z,2.50
2018-03-28T15:24:15.880Z,2.50
2018-03-28T15:26:46.539Z,2.40
2018-03-28T15:29:16.654Z,2.40
2018-03-28T15:31:46.588Z,2.40
2018-03-28T15:34:16.891Z,2.40
2018-03-28T15:36:46.762Z,2.40
2018-03-28T15:39:16.608Z,2.40
2018-03-28T15:41:46.416Z,2.40
2018-03-28T15:44:16.280Z,2.40
2018-03-28T15:46:46.102Z,2.40
2018-03-28T15:49:16.950Z,2.40
2018-03-28T15:51:46.769Z,2.40
2018-03-28T15:54:17.386Z,2.50
2018-03-28T15:56:47.280Z,2.40
2018-03-28T15:59:17.098Z,2.40
2018-03-28T16:01:46.947Z,2.40
2018-03-28T16:04:16.795Z,2.40
2018-03-28T16:06:46.658Z,2.40
2018-03-28T16:09:17.308Z,2.40
2018-03-28T16:11:46.945Z,2.40
2018-03-28T16:14:16.762Z,2.40
2018-03-28T16:16:46.633Z,2.40
2018-03-28T16:19:16.214Z,2.40
2018-03-28T16:21:46.085Z,2.40
2018-03-28T16:24:15.933Z,2.40
2018-03-28T16:26:45.810Z,2.40
2018-03-28T16:29:15.676Z,2.40
2018-03-28T16:31:45.516Z,2.40
2018-03-28T16:34:15.408Z,2.40
2018-03-28T16:36:45.315Z,2.40
2018-03-28T16:39:15.202Z,2.40
2018-03-28T16:41:45.048Z,2.30
2018-03-28T16:44:14.992Z,2.40
2018-03-28T16:46:44.874Z,2.40
2018-03-28T16:49:14.578Z,2.40
2018-03-28T16:51:44.485Z,2.40
2018-03-28T16:54:14.378Z,2.40
2018-03-28T16:56:45.864Z,2.40
2018-03-28T16:59:16.037Z,2.40
2018-03-28T17:01:45.667Z,2.30
2018-03-28T17:04:15.525Z,2.30
2018-03-28T17:06:45.382Z,2.40
2018-03-28T17:09:15.224Z,2.40
2018-03-28T17:11:45.059Z,2.40
2018-03-28T17:14:14.953Z,2.40
2018-03-28T17:16:44.611Z,2.40
2018-03-28T17:19:15.188Z,2.40
2018-03-28T17:21:45.074Z,2.40
2018-03-28T17:24:15.057Z,2.30
2018-03-28T17:26:45.681Z,2.30
2018-03-28T17:29:15.539Z,2.30
2018-03-28T17:31:45.374Z,2.40
2018-03-28T17:34:15.014Z,2.30
2018-03-28T17:36:44.880Z,2.30
2018-03-28T17:39:14.506Z,2.40
2018-03-28T17:41:44.422Z,2.30
2018-03-28T17:44:14.429Z,2.30
2018-03-28T17:46:44.297Z,2.30
2018-03-28T17:49:14.917Z,2.30
2018-03-28T17:51:44.788Z,2.30
2018-03-28T17:54:14.613Z,2.30
2018-03-28T17:56:44.298Z,2.20
2018-03-28T17:59:14.134Z,2.30
2018-03-28T18:01:44.051Z,2.30
2018-03-28T18:04:13.882Z,2.30
2018-03-28T18:06:43.792Z,2.30
2018-03-28T18:09:13.360Z,2.40
2018-03-28T18:11:43.214Z,2.40
2018-03-28T18:14:13.109Z,2.40
2018-03-28T18:16:42.921Z,2.40
2018-03-28T18:19:12.778Z,2.40
2018-03-28T18:21:43.372Z,2.40
2018-03-28T18:24:13.285Z,2.30
2018-03-28T18:26:43.125Z,2.30
2018-03-28T18:29:13.769Z,2.40
2018-03-28T18:31:44.357Z,2.40
2018-03-28T18:34:14.250Z,2.30
2018-03-28T18:36:44.489Z,2.30
2018-03-28T18:39:14.335Z,2.30
2018-03-28T18:41:44.202Z,2.40
2018-03-28T18:44:14.061Z,2.30
2018-03-28T18:46:43.890Z,2.40
2018-03-28T18:49:13.770Z,2.40
2018-03-28T18:51:43.613Z,2.40
2018-03-28T18:54:13.462Z,2.40
2018-03-28T18:56:43.293Z,2.40
2018-03-28T18:59:13.181Z,2.40
2018-03-28T19:01:43.025Z,2.40
2018-03-28T19:04:12.937Z,2.40
2018-03-28T19:06:42.833Z,2.40
2018-03-28T19:09:12.455Z,2.50
2018-03-28T19:11:42.352Z,2.40
2018-03-28T19:14:11.882Z,2.50
2018-03-28T19:16:41.772Z,2.40
2018-03-28T19:19:11.639Z,2.50
2018-03-28T19:21:41.469Z,2.40
2018-03-28T19:24:11.349Z,2.50
2018-03-28T19:26:41.951Z,2.40
2018-03-28T19:29:11.809Z,2.40
2018-03-28T19:31:42.204Z,2.40
2018-03-28T19:34:12.049Z,2.40
2018-03-28T19:36:42.717Z,2.40
2018-03-28T19:39:13.316Z,2.40
2018-03-28T19:41:43.181Z,2.40
2018-03-28T19:44:13.070Z,2.40
2018-03-28T19:46:43.078Z,2.40
2018-03-28T19:49:12.910Z,2.40
2018-03-28T19:51:43.575Z,2.50
2018-03-28T19:54:13.468Z,2.40
2018-03-28T19:56:43.337Z,2.40
2018-03-28T19:59:13.212Z,2.50
2018-03-28T20:01:43.898Z,2.50
2018-03-28T20:04:13.789Z,2.50
2018-03-28T20:06:43.649Z,2.40
2018-03-28T20:09:14.285Z,2.50
2018-03-28T20:11:44.884Z,2.50
2018-03-28T20:14:14.787Z,2.50
2018-03-28T20:16:44.643Z,2.50
2018-03-28T20:19:15.284Z,2.40
2018-03-28T20:21:45.865Z,2.50
2018-03-28T20:24:15.762Z,2.50
2018-03-28T20:26:45.639Z,2.50
2018-03-28T20:29:16.217Z,2.40
2018-03-28T20:31:46.085Z,2.40
2018-03-28T20:34:16.680Z,2.40
2018-03-28T20:36:46.547Z,2.40
2018-03-28T20:39:16.405Z,2.40
2018-03-28T20:41:46.277Z,2.40
2018-03-28T20:44:16.135Z,2.40
2018-03-28T20:46:46.005Z,2.40
2018-03-28T20:49:15.623Z,2.40
2018-03-28T20:51:45.179Z,2.40
2018-03-28T20:54:15.053Z,2.40
2018-03-28T20:56:44.889Z,2.40
2018-03-28T20:59:14.764Z,2.40
2018-03-28T21:01:44.614Z,2.40
2018-03-28T21:04:14.493Z,2.40
2018-03-28T21:06:44.335Z,2.40
2018-03-28T21:09:14.251Z,2.40
2018-03-28T21:11:44.265Z,2.40
2018-03-28T21:14:14.149Z,2.40
2018-03-28T21:16:44.025Z,2.40
2018-03-28T21:19:14.099Z,2.40
2018-03-28T21:21:43.921Z,2.40
2018-03-28T21:24:13.775Z,2.40
2018-03-28T21:26:43.598Z,2.50
2018-03-28T21:29:14.240Z,2.50
2018-03-28T21:31:44.113Z,2.50
2018-03-28T21:34:13.628Z,2.50
2018-03-28T21:36:44.296Z,2.40
2018-03-28T21:39:14.133Z,2.40
2018-03-28T21:41:44.001Z,2.40
2018-03-28T21:44:14.598Z,2.40
2018-03-28T21:46:44.469Z,2.40
2018-03-28T21:49:14.319Z,2.40
2018-03-28T21:51:44.191Z,2.50
2018-03-28T21:54:14.824Z,2.50
2018-03-28T21:56:45.421Z,2.50
2018-03-28T21:59:15.272Z,2.50
2018-03-28T22:01:45.088Z,2.50
2018-03-28T22:04:15.780Z,2.50
2018-03-28T22:06:45.644Z,2.40
2018-03-28T22:09:16.280Z,2.50
2018-03-28T22:11:46.894Z,2.50
2018-03-28T22:14:16.777Z,2.50
2018-03-28T22:16:46.657Z,2.50
2018-03-28T22:19:16.722Z,2.50
2018-03-28T22:21:47.701Z,2.50
2018-03-28T22:24:18.083Z,2.50
2018-03-28T22:26:47.737Z,2.50
2018-03-28T22:29:18.365Z,2.50
2018-03-28T22:31:48.201Z,2.50
2018-03-28T22:34:18.083Z,2.50
2018-03-28T22:36:47.711Z,2.50
2018-03-28T22:39:18.318Z,2.50
2018-03-28T22:41:48.201Z,2.50
2018-03-28T22:44:18.069Z,2.60
2018-03-28T22:46:48.758Z,2.50
2018-03-28T22:49:18.568Z,2.50
2018-03-28T22:51:48.427Z,2.50
2018-03-28T22:54:19.069Z,2.60
2018-03-28T22:56:48.914Z,2.60
2018-03-28T22:59:18.831Z,2.60
2018-03-28T23:01:48.710Z,2.60
2018-03-28T23:04:18.558Z,2.60
2018-03-28T23:06:48.426Z,2.60
2018-03-28T23:09:18.286Z,2.70
2018-03-28T23:11:48.288Z,2.70
2018-03-28T23:14:18.689Z,2.70
2018-03-28T23:16:48.610Z,2.60
2018-03-28T23:19:18.281Z,2.70
2018-03-28T23:21:48.195Z,2.70
2018-03-28T23:24:18.070Z,2.70
2018-03-28T23:26:47.892Z,2.70
2018-03-28T23:29:17.747Z,2.80
2018-03-28T23:31:47.589Z,2.80
2018-03-28T23:34:18.212Z,2.80
2018-03-28T23:36:48.841Z,2.80
2018-03-28T23:39:19.451Z,2.70
2018-03-28T23:41:49.289Z,2.70
2018-03-28T23:44:19.871Z,2.70
2018-03-28T23:46:49.730Z,2.70
2018-03-28T23:49:19.627Z,2.80
2018-03-28T23:51:49.451Z,2.80
2018-03-28T23:54:19.421Z,2.80
2018-03-28T23:56:49.252Z,2.90
2018-03-28T23:59:19.113Z,2.90
